DON PEDRO RESERVOIR (DNP)

Elevation: 830' · TUOLUMNE R basin · Operator: Turlock Irrigation District


Station comments:

04/19/2016Reservoir elevation data is now being collected from the USGS site.


Provisional data, subject to change.
Query executed Thursday at 17:07:55   clock

Select a sensor type for a plot of data.
Note: Reservoir Flows are daily averages.

Earlier

Date RES ELE    STORAGE    RES CHG    TOC STO    ABV TOC    OUTFLOW    INFLOW    PPT INC   
 FEET   AF   AF   AF   AF   CFS   CFS   INCHES  
06/29/2016 790.35 1563468 -3501 1901298 -337830 2228 1158 0.00
06/30/2016 790.19 1562408 -3168 1898861 -- 2594 2059 0.00
07/01/2016 789.96 1560300 -4448 1896480 -- 2683 2059 0.00
07/02/2016 789.81 1558172 -1692 1892571 -- 2138 1065 0.00
07/03/2016 789.63 1556057 -1796 1888762 -- 2117 1051 0.00
07/04/2016 789.51 1555000 -1266 1884980 -- 1772 1239 0.00
07/05/2016 789.26 1552889 -4431 1881359 -328470 2219 1155 0.00
07/06/2016 788.91 1548673 -5900 1876586 -327914 2413 288 0.00
07/07/2016 788.59 1545516 -- 1872457 -- 2224 632 0.00
07/08/2016 788.34 1542365 -4516 1868010 -- 2190 602 0.00
07/09/2016 787.98 1539218 -3772 1863427 -- 2432 846 0.00
07/10/2016 787.68 1536076 -3139 1858784 -324695 2174 589 0.00
07/11/2016 787.46 1533984 -4285 1854394 -320410 1736 681 0.00
07/12/2016 787.15 1529807 -5324 1849110 -319303 2189 83 0.00
07/13/2016 786.79 1526680 -4793 1844607 -317927 2416 840 0.00
07/14/2016 786.45 1523558 -5097 1840867 -317309 2681 1107 0.00
07/15/2016 786.05 1519402 -6126 1834696 -- 2657 562 0.00
07/16/2016 785.38 1512151 -6935 1828002 -- 2202 -1454 0.00
07/17/2016 785.15 1510084 -2374 1882531 -- 2212 1170 0.00
07/18/2016 785.10 1509052 -413 1846667 -337615 2123 1603 0.00
07/19/2016 784.79 1505957 -4538 1863333 -357376 2169 609 0.00
07/20/2016 784.45 1501838 -5044 1880000 -- 2464 388 0.00
07/21/2016 784.08 1498755 -3595 1896667 -397912 2413 859 0.00
07/22/2016 783.79 1495676 -4616 1913333 -- 2146 594 0.00
07/23/2016 783.48 1492603 -3071 1930000 -- 2096 546 0.00
07/24/2016 783.03 1487491 -4394 1946667 -- 2744 166 0.00
07/25/2016 782.69 1484430 -4284 1963333 -478903 2294 751 0.00
07/26/2016 781.31 1480357 -22600 1980000 -509790 2435 382 0.00
07/27/2016 781.93 1476292 5270 1996667 -520375 2542 493 0.00
07/28/2016 -- -- -- -- -- -- -- --

Later | Latest

Warning! This data is preliminary and subject to revision.

Show DNP Map | Plot DNP Data | 1 Month DNP Data | Real-Time DNP Data | DNP Info